createdAt,value
2018-12-06T00:01:53.624Z,13.70
2018-12-06T00:04:22.371Z,13.90
2018-12-06T00:06:51.075Z,14.43
2018-12-06T00:09:19.830Z,14.33
2018-12-06T00:11:48.590Z,15.03
2018-12-06T00:14:17.311Z,14.30
2018-12-06T00:16:55.215Z,14.30
2018-12-06T00:19:23.981Z,14.60
2018-12-06T00:21:52.746Z,14.78
2018-12-06T00:24:21.437Z,13.03
2018-12-06T00:26:50.167Z,14.80
2018-12-06T00:29:18.827Z,15.55
2018-12-06T00:31:47.579Z,14.25
2018-12-06T00:34:16.306Z,15.20
2018-12-06T00:36:45.315Z,15.08
2018-12-06T00:39:14.014Z,15.23
2018-12-06T00:41:42.750Z,15.15
2018-12-06T00:44:11.487Z,14.38
2018-12-06T00:46:40.242Z,14.93
2018-12-06T00:49:08.994Z,14.73
2018-12-06T00:51:37.651Z,15.00
2018-12-06T00:54:06.381Z,14.40
2018-12-06T00:56:35.050Z,14.73
2018-12-06T00:59:03.771Z,14.63
2018-12-06T01:01:32.486Z,15.10
2018-12-06T01:04:01.198Z,14.07
2018-12-06T01:06:29.987Z,13.13
2018-12-06T01:08:58.742Z,13.62
2018-12-06T01:11:27.458Z,14.70
2018-12-06T01:13:56.187Z,14.90
2018-12-06T01:16:24.922Z,15.35
2018-12-06T01:18:53.726Z,15.15
2018-12-06T01:21:22.382Z,15.90
2018-12-06T01:23:51.055Z,15.58
2018-12-06T01:26:19.826Z,15.55
2018-12-06T01:28:48.559Z,16.02
2018-12-06T01:31:17.227Z,15.93
2018-12-06T01:33:45.889Z,14.67
2018-12-06T01:36:14.542Z,15.75
2018-12-06T01:38:43.271Z,15.40
2018-12-06T01:41:11.974Z,14.20
2018-12-06T01:43:40.698Z,14.07
2018-12-06T01:46:09.421Z,15.20
2018-12-06T01:48:38.340Z,15.00
2018-12-06T01:51:07.043Z,15.68
2018-12-06T01:53:35.719Z,15.10
2018-12-06T01:56:04.430Z,14.93
2018-12-06T01:58:33.141Z,15.10
2018-12-06T02:01:01.886Z,16.15
2018-12-06T02:03:30.547Z,16.10
2018-12-06T02:05:59.194Z,16.73
2018-12-06T02:08:27.931Z,16.62
2018-12-06T02:10:56.648Z,16.75
2018-12-06T02:13:25.370Z,16.63
2018-12-06T02:15:54.134Z,15.90
2018-12-06T02:18:22.806Z,16.82
2018-12-06T02:20:51.498Z,17.67
2018-12-06T02:23:20.230Z,18.05
2018-12-06T02:25:48.969Z,16.77
2018-12-06T02:28:17.671Z,16.90
2018-12-06T02:30:46.377Z,17.98
2018-12-06T02:33:15.179Z,17.20
2018-12-06T02:35:43.943Z,17.60
2018-12-06T02:38:12.691Z,18.52
2018-12-06T02:40:41.414Z,18.05
2018-12-06T02:43:10.126Z,18.23
2018-12-06T02:45:38.847Z,19.05
2018-12-06T02:48:07.760Z,17.93
2018-12-06T02:50:36.543Z,18.15
2018-12-06T02:53:05.414Z,17.67
2018-12-06T02:55:34.078Z,18.67
2018-12-06T02:58:02.762Z,18.20
2018-12-06T03:00:31.499Z,19.20
2018-12-06T03:03:00.241Z,19.30
2018-12-06T03:05:29.006Z,18.62
2018-12-06T03:07:57.707Z,19.55
2018-12-06T03:10:26.420Z,19.17
2018-12-06T03:12:55.143Z,19.23
2018-12-06T03:15:23.857Z,20.00
2018-12-06T03:17:54.504Z,19.32
2018-12-06T03:20:23.264Z,20.15
2018-12-06T03:22:51.982Z,19.67
2018-12-06T03:25:20.708Z,20.00
2018-12-06T03:27:49.387Z,19.45
2018-12-06T03:30:18.185Z,20.10
2018-12-06T03:32:46.896Z,19.80
2018-12-06T03:35:15.639Z,20.57
2018-12-06T03:37:44.295Z,20.52
2018-12-06T03:40:13.115Z,20.82
2018-12-06T03:42:41.840Z,21.40
2018-12-06T03:45:10.595Z,20.20
2018-12-06T03:47:39.310Z,21.57
2018-12-06T03:50:08.032Z,20.60
2018-12-06T03:52:36.894Z,20.00
2018-12-06T03:55:05.602Z,20.20
2018-12-06T03:57:34.280Z,20.00
2018-12-06T04:00:03.152Z,20.48
2018-12-06T04:02:31.911Z,19.85
2018-12-06T04:05:00.554Z,20.10
2018-12-06T04:07:29.268Z,20.40
2018-12-06T04:09:57.984Z,22.67
2018-12-06T04:12:26.776Z,22.45
2018-12-06T04:14:55.443Z,22.85
2018-12-06T04:17:24.151Z,22.37
2018-12-06T04:19:52.847Z,21.42
2018-12-06T04:22:21.499Z,22.95
2018-12-06T04:24:50.223Z,21.25
2018-12-06T04:27:18.943Z,21.30
2018-12-06T04:29:47.594Z,21.13
2018-12-06T04:32:17.560Z,21.80
2018-12-06T04:34:46.500Z,21.80
2018-12-06T04:37:15.295Z,22.70
2018-12-06T04:39:43.963Z,22.58
2018-12-06T04:42:12.716Z,22.57
2018-12-06T04:44:42.226Z,22.17
2018-12-06T04:47:10.944Z,21.77
2018-12-06T04:49:39.659Z,21.67
2018-12-06T04:52:08.512Z,22.00
2018-12-06T04:54:37.208Z,20.60
2018-12-06T04:57:05.919Z,20.67
2018-12-06T04:59:34.686Z,21.40
2018-12-06T05:02:03.467Z,21.77
2018-12-06T05:04:32.248Z,21.30
2018-12-06T05:07:01.647Z,20.88
2018-12-06T05:09:30.327Z,21.10
2018-12-06T05:11:59.158Z,22.35
2018-12-06T05:14:27.807Z,21.80
2018-12-06T05:16:56.541Z,21.30
2018-12-06T05:19:25.267Z,21.75
2018-12-06T05:21:53.910Z,22.00
2018-12-06T05:24:22.671Z,21.40
2018-12-06T05:26:51.435Z,22.23
2018-12-06T05:29:21.119Z,21.85
2018-12-06T05:31:49.845Z,22.30
2018-12-06T05:34:18.502Z,22.90
2018-12-06T05:36:47.231Z,21.97
2018-12-06T05:39:16.003Z,22.97
2018-12-06T05:41:44.739Z,22.35
2018-12-06T05:44:13.454Z,22.77
2018-12-06T05:46:42.199Z,21.80
2018-12-06T05:49:11.027Z,21.70
2018-12-06T05:51:40.442Z,22.85
2018-12-06T05:54:09.187Z,21.77
2018-12-06T05:56:37.931Z,23.42
2018-12-06T05:59:06.642Z,22.37
2018-12-06T06:01:35.362Z,23.33
2018-12-06T06:04:04.155Z,24.23
2018-12-06T06:06:32.806Z,23.32
2018-12-06T06:09:01.471Z,22.73
2018-12-06T06:11:30.514Z,22.25
2018-12-06T06:13:59.280Z,23.00
2018-12-06T06:16:27.946Z,22.32
2018-12-06T06:18:56.671Z,23.62
2018-12-06T06:21:25.391Z,22.15
2018-12-06T06:23:54.193Z,20.90
2018-12-06T06:26:23.047Z,22.42
2018-12-06T06:28:51.734Z,22.90
2018-12-06T06:31:20.466Z,21.77
2018-12-06T06:33:49.218Z,21.70
2018-12-06T06:36:17.971Z,22.73
2018-12-06T06:38:46.786Z,21.70
2018-12-06T06:41:15.534Z,20.37
2018-12-06T06:43:44.222Z,21.85
2018-12-06T06:46:12.902Z,22.80
2018-12-06T06:48:41.622Z,23.10
2018-12-06T06:51:10.339Z,22.95
2018-12-06T06:53:39.075Z,22.62
2018-12-06T06:56:07.899Z,24.18
2018-12-06T06:58:36.570Z,22.80
2018-12-06T07:01:05.282Z,25.10
2018-12-06T07:03:33.995Z,24.15
2018-12-06T07:06:02.719Z,23.87
2018-12-06T07:08:31.387Z,24.90
2018-12-06T07:11:00.055Z,25.30
2018-12-06T07:13:28.735Z,24.40
2018-12-06T07:15:57.386Z,26.25
2018-12-06T07:18:26.098Z,25.55
2018-12-06T07:20:54.782Z,25.90
2018-12-06T07:23:23.552Z,24.90
2018-12-06T07:25:52.343Z,25.05
2018-12-06T07:28:21.051Z,25.52
2018-12-06T07:30:49.834Z,25.82
2018-12-06T07:33:18.562Z,25.95
2018-12-06T07:35:47.283Z,24.30
2018-12-06T07:38:15.974Z,24.43
2018-12-06T07:40:44.630Z,24.55
2018-12-06T07:43:13.275Z,23.83
2018-12-06T07:45:41.934Z,24.75
2018-12-06T07:48:10.668Z,23.70
2018-12-06T07:50:39.326Z,24.10
2018-12-06T07:53:08.042Z,25.85
2018-12-06T07:55:36.699Z,25.88
2018-12-06T07:58:05.351Z,25.90
2018-12-06T08:00:34.150Z,26.15
2018-12-06T08:03:02.838Z,28.47
2018-12-06T08:05:31.511Z,26.80
2018-12-06T08:08:00.175Z,26.93
2018-12-06T08:10:28.839Z,28.00
2018-12-06T08:12:57.527Z,28.25
2018-12-06T08:15:26.207Z,27.75
2018-12-06T08:17:54.955Z,28.02
2018-12-06T08:20:23.671Z,27.63
2018-12-06T08:22:52.391Z,27.13
2018-12-06T08:25:21.058Z,27.27
2018-12-06T08:27:49.712Z,26.55
2018-12-06T08:30:18.362Z,27.45
2018-12-06T08:32:47.091Z,26.12
2018-12-06T08:35:15.772Z,26.12
2018-12-06T08:37:44.537Z,25.97
2018-12-06T08:40:13.202Z,26.15
2018-12-06T08:42:45.613Z,26.00
2018-12-06T08:45:12.664Z,26.62
2018-12-06T08:47:41.434Z,27.85
2018-12-06T08:50:10.150Z,27.70
2018-12-06T08:52:39.332Z,27.20
2018-12-06T08:55:08.122Z,28.83
2018-12-06T08:57:36.834Z,29.23
2018-12-06T09:00:07.482Z,29.00
2018-12-06T09:02:36.163Z,28.87
2018-12-06T09:05:05.654Z,29.90
2018-12-06T09:07:34.435Z,28.98
2018-12-06T09:10:03.398Z,28.85
2018-12-06T09:12:32.134Z,29.90
2018-12-06T09:15:00.885Z,27.73
2018-12-06T09:17:29.634Z,28.85
2018-12-06T09:19:58.368Z,29.42
2018-12-06T09:22:27.098Z,27.55
2018-12-06T09:24:55.818Z,27.00
2018-12-06T09:27:24.545Z,24.90
2018-12-06T09:29:53.274Z,25.97
2018-12-06T09:32:22.075Z,24.75
2018-12-06T09:34:50.738Z,24.32
2018-12-06T09:37:19.447Z,22.93
2018-12-06T09:39:57.098Z,23.67
2018-12-06T09:42:25.819Z,23.50
2018-12-06T09:44:54.473Z,23.27
2018-12-06T09:47:23.269Z,23.38
2018-12-06T09:49:51.993Z,23.30
2018-12-06T09:52:20.787Z,22.07
2018-12-06T09:54:49.544Z,22.80
2018-12-06T09:57:18.263Z,25.17
2018-12-06T09:59:47.143Z,21.90
2018-12-06T10:02:15.799Z,22.40
2018-12-06T10:04:44.514Z,22.05
2018-12-06T10:07:13.231Z,22.67
2018-12-06T10:09:41.950Z,21.10
2018-12-06T10:12:10.690Z,22.02
2018-12-06T10:14:39.425Z,21.68
2018-12-06T10:17:09.226Z,20.12
2018-12-06T10:19:37.937Z,20.25
2018-12-06T10:22:06.698Z,19.12
2018-12-06T10:24:35.490Z,18.85
2018-12-06T10:27:04.214Z,18.02
2018-12-06T10:29:32.930Z,19.60
2018-12-06T10:32:01.714Z,20.15
2018-12-06T10:34:30.424Z,21.30
2018-12-06T10:36:59.151Z,21.15
2018-12-06T10:39:27.877Z,21.20
2018-12-06T10:41:56.588Z,21.75
2018-12-06T10:44:28.971Z,22.40
2018-12-06T10:46:57.750Z,22.53
2018-12-06T10:49:26.531Z,23.90
2018-12-06T10:51:55.264Z,23.42
2018-12-06T10:54:24.003Z,22.87
2018-12-06T10:56:52.748Z,23.00
2018-12-06T10:59:21.466Z,24.30
2018-12-06T11:01:55.603Z,22.90
2018-12-06T11:04:28.462Z,24.07
2018-12-06T11:06:57.212Z,25.25
2018-12-06T11:09:25.934Z,25.43
2018-12-06T11:11:54.735Z,25.17
2018-12-06T11:14:23.495Z,24.90
2018-12-06T11:16:52.239Z,25.63
2018-12-06T11:19:20.943Z,26.48
2018-12-06T11:21:49.654Z,24.35
2018-12-06T11:24:19.126Z,25.08
2018-12-06T11:26:47.795Z,26.60
2018-12-06T11:29:16.519Z,29.10
2018-12-06T11:31:45.185Z,29.27
2018-12-06T11:34:13.942Z,30.40
2018-12-06T11:36:42.597Z,30.17
2018-12-06T11:39:11.323Z,31.40
2018-12-06T11:41:43.316Z,29.70
2018-12-06T11:44:10.751Z,31.20
2018-12-06T11:46:39.474Z,31.90
2018-12-06T11:49:08.226Z,32.63
2018-12-06T11:51:36.938Z,33.30
2018-12-06T11:54:05.695Z,35.03
2018-12-06T11:56:34.411Z,34.80
2018-12-06T11:59:03.195Z,35.20
2018-12-06T12:01:31.930Z,37.43
2018-12-06T12:04:00.614Z,38.10
2018-12-06T12:06:29.350Z,38.17
2018-12-06T12:08:58.019Z,39.48
2018-12-06T12:11:26.746Z,39.75
2018-12-06T12:13:55.463Z,39.75
2018-12-06T12:16:24.184Z,38.60
2018-12-06T12:18:52.883Z,39.83
2018-12-06T12:21:21.619Z,39.07
2018-12-06T12:23:50.301Z,38.20
2018-12-06T12:26:19.038Z,39.23
2018-12-06T12:28:47.706Z,39.60
2018-12-06T12:31:17.087Z,38.40
2018-12-06T12:33:45.826Z,38.50
2018-12-06T12:36:14.523Z,36.87
2018-12-06T12:38:43.267Z,37.93
2018-12-06T12:41:13.018Z,38.83
2018-12-06T12:43:41.743Z,38.83
2018-12-06T12:46:10.542Z,37.55
2018-12-06T12:48:39.212Z,37.93
2018-12-06T12:51:07.932Z,38.63
2018-12-06T12:53:36.653Z,34.50
2018-12-06T12:56:05.437Z,37.53
2018-12-06T12:58:34.122Z,37.30
2018-12-06T13:01:02.842Z,33.40
2018-12-06T13:03:31.563Z,36.20
2018-12-06T13:06:00.226Z,36.70
2018-12-06T13:08:28.886Z,34.83
2018-12-06T13:10:57.602Z,34.50
2018-12-06T13:13:26.398Z,35.53
2018-12-06T13:15:56.058Z,36.77
2018-12-06T13:18:24.784Z,37.63
2018-12-06T13:20:53.642Z,38.35
2018-12-06T13:23:22.386Z,38.17
2018-12-06T13:25:51.094Z,38.53
2018-12-06T13:28:19.806Z,39.03
2018-12-06T13:30:48.531Z,38.30
2018-12-06T13:33:17.274Z,37.13
2018-12-06T13:35:45.987Z,35.17
2018-12-06T13:38:15.421Z,33.67
2018-12-06T13:40:44.205Z,33.57
2018-12-06T13:43:12.894Z,33.67
2018-12-06T13:45:41.654Z,33.60
2018-12-06T13:48:10.310Z,33.60
2018-12-06T13:50:39.115Z,32.80
2018-12-06T13:53:07.873Z,33.80
2018-12-06T13:55:36.566Z,32.43
2018-12-06T13:58:05.323Z,32.83
2018-12-06T14:00:34.870Z,33.50
2018-12-06T14:03:03.775Z,34.13
2018-12-06T14:05:32.506Z,35.20
2018-12-06T14:08:01.228Z,34.70
2018-12-06T14:10:29.994Z,33.40
2018-12-06T14:12:58.667Z,31.33
2018-12-06T14:15:27.389Z,30.43
2018-12-06T14:17:56.133Z,29.60
2018-12-06T14:20:24.839Z,29.45
2018-12-06T14:22:54.023Z,28.60
2018-12-06T14:25:22.903Z,26.90
2018-12-06T14:27:51.623Z,26.33
2018-12-06T14:30:20.371Z,26.17
2018-12-06T14:32:49.158Z,25.87
2018-12-06T14:35:17.870Z,25.80
2018-12-06T14:37:46.572Z,25.17
2018-12-06T14:40:15.310Z,24.67
2018-12-06T14:42:44.042Z,24.63
2018-12-06T14:45:13.555Z,25.45
2018-12-06T14:47:42.259Z,25.08
2018-12-06T14:50:10.974Z,26.03
2018-12-06T14:52:39.694Z,25.55
2018-12-06T14:55:08.581Z,25.43
2018-12-06T14:57:37.295Z,27.10
2018-12-06T15:00:08.255Z,24.90
2018-12-06T15:02:37.032Z,26.20
2018-12-06T15:05:07.685Z,25.00
2018-12-06T15:07:36.419Z,26.17
2018-12-06T15:10:06.398Z,26.40
2018-12-06T15:12:35.166Z,26.90
2018-12-06T15:15:04.736Z,29.35
2018-12-06T15:17:33.503Z,30.32
2018-12-06T15:20:02.298Z,31.62
2018-12-06T15:22:31.008Z,32.38
2018-12-06T15:25:00.120Z,33.60
2018-12-06T15:28:00.022Z,34.03
2018-12-06T15:30:28.743Z,34.47
2018-12-06T15:32:57.444Z,33.85
2018-12-06T15:35:26.163Z,36.38
2018-12-06T15:37:54.864Z,34.90
2018-12-06T15:40:23.563Z,34.90
2018-12-06T15:42:54.040Z,34.45
2018-12-06T15:45:22.894Z,34.03
2018-12-06T15:47:51.623Z,33.00
2018-12-06T15:50:20.340Z,32.87
2018-12-06T15:52:49.006Z,32.40
2018-12-06T15:55:17.814Z,31.60
2018-12-06T15:57:47.010Z,31.52
2018-12-06T16:00:16.598Z,29.67
2018-12-06T16:02:45.323Z,30.10
2018-12-06T16:05:14.047Z,29.77
2018-12-06T16:07:42.787Z,25.75
2018-12-06T16:10:11.510Z,26.80
2018-12-06T16:12:40.248Z,26.40
2018-12-06T16:15:09.138Z,26.45
2018-12-06T16:17:43.937Z,27.23
2018-12-06T16:20:15.507Z,25.63
2018-12-06T16:22:46.094Z,26.30
2018-12-06T16:25:14.786Z,28.75
2018-12-06T16:27:43.507Z,30.13
2018-12-06T16:30:12.260Z,30.43
2018-12-06T16:32:40.979Z,28.97
2018-12-06T16:35:09.906Z,27.73
2018-12-06T16:37:38.610Z,29.03
2018-12-06T16:40:07.384Z,30.10
2018-12-06T16:42:36.094Z,28.30
2018-12-06T16:45:05.575Z,28.50
2018-12-06T16:47:34.304Z,27.37
2018-12-06T16:50:03.323Z,28.20
2018-12-06T16:52:32.110Z,29.70
2018-12-06T16:55:00.798Z,27.58
2018-12-06T16:57:29.514Z,27.58
2018-12-06T16:59:58.228Z,29.12
2018-12-06T17:02:26.963Z,28.57
2018-12-06T17:04:55.679Z,30.43
2018-12-06T17:07:24.454Z,29.82
2018-12-06T17:09:53.188Z,29.77
2018-12-06T17:12:22.102Z,29.95
2018-12-06T17:14:50.859Z,31.13
2018-12-06T17:17:19.583Z,32.03
2018-12-06T17:19:48.381Z,31.10
2018-12-06T17:22:17.038Z,31.30
2018-12-06T17:24:45.755Z,33.47
2018-12-06T17:27:14.520Z,33.10
2018-12-06T17:29:43.198Z,33.42
2018-12-06T17:32:11.911Z,32.43
2018-12-06T17:34:41.559Z,33.60
2018-12-06T17:37:10.269Z,32.70
2018-12-06T17:39:39.002Z,34.70
2018-12-06T17:42:07.834Z,33.17
2018-12-06T17:44:37.696Z,32.67
2018-12-06T17:47:07.045Z,31.97
2018-12-06T17:49:35.763Z,32.30
2018-12-06T17:52:04.559Z,31.30
2018-12-06T17:54:33.279Z,31.33
2018-12-06T17:57:02.001Z,30.33
2018-12-06T17:59:30.767Z,31.67
2018-12-06T18:01:59.515Z,30.47
2018-12-06T18:04:28.256Z,31.57
2018-12-06T18:06:56.980Z,31.70
2018-12-06T18:09:25.819Z,30.02
2018-12-06T18:11:54.487Z,33.40
2018-12-06T18:14:23.155Z,31.97
2018-12-06T18:16:51.954Z,33.43
2018-12-06T18:19:20.786Z,32.70
2018-12-06T18:21:49.494Z,31.37
2018-12-06T18:24:18.964Z,31.00
2018-12-06T18:26:47.723Z,31.70
2018-12-06T18:29:16.506Z,30.27
2018-12-06T18:31:45.299Z,31.35
2018-12-06T18:34:14.091Z,31.73
2018-12-06T18:36:42.814Z,30.97
2018-12-06T18:39:11.571Z,28.70
2018-12-06T18:41:40.274Z,29.20
2018-12-06T18:44:09.056Z,27.30
2018-12-06T18:46:37.843Z,28.35
2018-12-06T18:49:06.555Z,27.42
2018-12-06T18:51:35.283Z,28.15
2018-12-06T18:54:04.067Z,28.23
2018-12-06T18:56:32.856Z,26.42
2018-12-06T18:59:01.675Z,26.95
2018-12-06T19:01:30.391Z,27.73
2018-12-06T19:03:59.969Z,28.70
2018-12-06T19:06:28.680Z,26.23
2018-12-06T19:08:57.398Z,25.20
2018-12-06T19:11:26.149Z,25.43
2018-12-06T19:13:54.883Z,25.60
2018-12-06T19:16:23.682Z,26.00
2018-12-06T19:18:52.382Z,26.33
2018-12-06T19:21:21.109Z,26.27
2018-12-06T19:23:49.811Z,25.43
2018-12-06T19:26:19.340Z,25.92
2018-12-06T19:28:48.051Z,26.55
2018-12-06T19:31:16.823Z,25.13
2018-12-06T19:33:45.583Z,26.47
2018-12-06T19:36:14.319Z,24.50
2018-12-06T19:38:43.039Z,24.70
2018-12-06T19:41:11.840Z,25.77
2018-12-06T19:43:41.557Z,25.97
2018-12-06T19:46:10.334Z,27.00
2018-12-06T19:48:39.064Z,26.42
2018-12-06T19:51:07.776Z,27.17
2018-12-06T19:53:36.538Z,26.33
2018-12-06T19:56:05.354Z,27.10
2018-12-06T19:58:34.076Z,26.87
2018-12-06T20:01:02.824Z,27.00
2018-12-06T20:03:32.550Z,27.37
2018-12-06T20:06:01.331Z,26.80
2018-12-06T20:08:30.060Z,26.48
2018-12-06T20:10:58.802Z,27.82
2018-12-06T20:13:27.598Z,24.83
2018-12-06T20:15:56.331Z,26.10
2018-12-06T20:18:25.253Z,27.20
2018-12-06T20:20:54.043Z,26.40
2018-12-06T20:23:22.875Z,26.12
2018-12-06T20:25:51.696Z,26.60
2018-12-06T20:28:26.329Z,26.90
2018-12-06T20:30:51.011Z,26.07
2018-12-06T20:33:19.739Z,26.10
2018-12-06T20:35:48.510Z,27.42
2018-12-06T20:38:17.292Z,26.13
2018-12-06T20:40:46.111Z,26.30
2018-12-06T20:43:14.836Z,27.07
2018-12-06T20:45:43.592Z,27.13
2018-12-06T20:48:12.268Z,27.87
2018-12-06T20:50:41.043Z,27.55
2018-12-06T20:53:09.710Z,27.67
2018-12-06T20:55:38.479Z,26.95
2018-12-06T20:58:14.679Z,25.93
2018-12-06T21:00:37.932Z,25.70
2018-12-06T21:03:06.754Z,25.43
2018-12-06T21:05:35.551Z,25.43
2018-12-06T21:08:04.349Z,26.30
2018-12-06T21:10:33.039Z,25.12
2018-12-06T21:13:02.202Z,24.43
2018-12-06T21:15:30.912Z,24.32
2018-12-06T21:17:59.622Z,23.50
2018-12-06T21:20:28.466Z,23.33
2018-12-06T21:22:58.027Z,23.70
2018-12-06T21:25:26.770Z,23.20
2018-12-06T21:27:55.507Z,23.60
2018-12-06T21:30:24.262Z,23.18
2018-12-06T21:32:54.077Z,24.05
2018-12-06T21:35:22.874Z,25.15
2018-12-06T21:37:51.854Z,25.50
2018-12-06T21:40:20.700Z,25.90
2018-12-06T21:42:49.457Z,25.27
2018-12-06T21:45:18.203Z,26.47
2018-12-06T21:47:48.027Z,26.57
2018-12-06T21:50:16.792Z,26.27
2018-12-06T21:52:45.507Z,25.80
2018-12-06T21:55:14.178Z,26.45
2018-12-06T21:57:42.902Z,26.87
2018-12-06T22:00:11.938Z,27.20
2018-12-06T22:02:40.799Z,27.43
2018-12-06T22:05:09.571Z,27.70
2018-12-06T22:07:38.391Z,26.60
2018-12-06T22:10:08.218Z,27.60
2018-12-06T22:12:36.939Z,28.70
2018-12-06T22:15:06.039Z,28.77
2018-12-06T22:17:34.702Z,27.70
2018-12-06T22:20:03.763Z,28.60
2018-12-06T22:22:32.590Z,28.33
2018-12-06T22:25:01.310Z,28.57
2018-12-06T22:27:30.006Z,27.73
2018-12-06T22:29:58.716Z,28.20
2018-12-06T22:32:27.572Z,29.05
2018-12-06T22:34:56.432Z,30.60
2018-12-06T22:37:25.156Z,30.95
2018-12-06T22:39:53.853Z,31.00
2018-12-06T22:42:22.567Z,31.33
2018-12-06T22:44:57.631Z,31.55
2018-12-06T22:47:27.353Z,32.38
2018-12-06T22:49:56.071Z,32.63
2018-12-06T22:52:24.793Z,33.40
2018-12-06T22:54:53.504Z,34.38
2018-12-06T22:57:22.206Z,33.50
2018-12-06T22:59:50.947Z,33.00
2018-12-06T23:02:19.666Z,34.65
2018-12-06T23:04:48.404Z,32.93
2018-12-06T23:07:18.082Z,32.10
2018-12-06T23:09:46.839Z,32.60
2018-12-06T23:12:15.552Z,32.75
2018-12-06T23:14:44.258Z,33.33
2018-12-06T23:17:12.987Z,32.63
2018-12-06T23:19:41.718Z,31.90
2018-12-06T23:22:10.479Z,32.08
2018-12-06T23:24:39.287Z,33.42
2018-12-06T23:27:08.000Z,31.90
2018-12-06T23:29:36.792Z,31.10
2018-12-06T23:32:05.580Z,29.95
2018-12-06T23:34:34.314Z,31.00
2018-12-06T23:37:03.038Z,31.52
2018-12-06T23:39:31.730Z,29.77
2018-12-06T23:42:00.459Z,28.55
2018-12-06T23:44:29.195Z,26.33
2018-12-06T23:46:57.866Z,25.40
2018-12-06T23:49:26.543Z,24.10
2018-12-06T23:51:55.368Z,23.47
2018-12-06T23:54:24.107Z,21.77
2018-12-06T23:56:52.880Z,21.60
2018-12-06T23:59:21.675Z,20.92
